FYLZ/LUD METAR and TAF weather

Enter ICAO airport designator
Station Type Date Time Source
FYLZ METAR 2022/06/27 09:00 UTC NOAA

FYLZ 270900Z AUTO 06029KT //// // ////// 29/09 Q1022


Station Type Date Time Source
FYLZ Decoded METAR 2022/06/27 09:00 UTC NOAA

Luderitz / Diaz Point, Namibia (FYLZ) 26-41S 015-15E
Jun 27, 2022 - 05:00 AM EDT / 2022.06.27 0900 UTC
Wind: from the ENE (060 degrees) at 33 MPH (29 KT):0
Temperature: 84 F (29 C)
Dew Point: 48 F (9 C)
Relative Humidity: 28%
Pressure (altimeter): 30.18 in. Hg (1022 hPa)
ob: FYLZ 270900Z AUTO 06029KT //// // ////// 29/09 Q1022
cycle: 9

Station Type Date Time Source
FYLZ TAF 2014/11/15 15:19 UTC NOAA

TAF FYLZ 151400Z 1515/1524 18015G28KT CAVOK
BECMG 1518/1520 16020KT

Example: see airport list